Time,TemperatureF,DewpointF,PressureIn,WindDirection,WindDirectionDegrees,WindSpeedMPH,WindSpeedGustMPH,Humidity,HourlyPrecipIn,Conditions,Clouds,dailyrainin,SolarRadiationWatts/m^2,SoftwareType,DateUTC
2013-06-16 00:22:00,49.0,28.0,-100.00,East,99,1.0,3.0,44,-99.99,,,-99.99,0.000000,,2013-06-16 07:22:00,
2013-06-16 00:30:00,49.0,26.0,-100.00,SSE,150,1.0,3.0,40,-99.99,,,-99.99,0.000000,,2013-06-16 07:30:00,
2013-06-16 01:22:00,49.0,26.0,-100.00,SSE,150,1.0,3.0,40,-99.99,,,-99.99,0.000000,,2013-06-16 08:22:00,
2013-06-16 01:30:00,48.0,23.0,-100.00,SE,140,2.0,4.0,37,-99.99,,,-99.99,0.000000,,2013-06-16 08:30:00,
2013-06-16 02:22:00,48.0,23.0,-100.00,SE,140,2.0,4.0,37,-99.99,,,-99.99,0.000000,,2013-06-16 09:22:00,
2013-06-16 02:30:00,48.0,20.0,-100.00,SSE,148,2.0,5.0,33,-99.99,,,-99.99,0.000000,,2013-06-16 09:30:00,
2013-06-16 03:22:00,48.0,20.0,-100.00,SSE,148,2.0,5.0,33,-99.99,,,-99.99,0.000000,,2013-06-16 10:22:00,
2013-06-16 04:22:00,49.0,21.0,-100.00,SE,144,2.0,5.0,33,-99.99,,,-99.99,0.000000,,2013-06-16 11:22:00,
2013-06-16 04:30:00,48.0,20.0,-100.00,SSE,157,2.0,4.0,32,-99.99,,,-99.99,0.000000,,2013-06-16 11:30:00,
2013-06-16 05:22:00,48.0,20.0,-100.00,SSE,157,2.0,4.0,32,-99.99,,,-99.99,0.000000,,2013-06-16 12:22:00,
2013-06-16 05:30:00,48.0,19.0,-100.00,WSW,239,1.0,3.0,31,-99.99,,,-99.99,1.000000,,2013-06-16 12:30:00,
2013-06-16 07:22:00,48.0,21.0,-100.00,West,261,0.0,1.0,34,-99.99,,,-99.99,26.000000,,2013-06-16 14:22:00,
2013-06-16 09:30:00,55.0,15.0,-100.00,South,187,3.0,6.0,20,-99.99,,,-99.99,525.000000,,2013-06-16 16:30:00,
2013-06-16 10:30:00,59.0,20.0,-100.00,West,268,2.0,6.0,22,-99.99,,,-99.99,650.000000,,2013-06-16 17:30:00,
2013-06-16 11:22:00,59.0,20.0,-100.00,West,268,2.0,6.0,22,-99.99,,,-99.99,650.000000,,2013-06-16 18:22:00,
2013-06-16 11:30:00,59.0,22.0,-100.00,South,178,6.0,13.0,23,-99.99,,,-99.99,734.000000,,2013-06-16 18:30:00,
2013-06-16 12:22:00,59.0,22.0,-100.00,South,178,6.0,13.0,23,-99.99,,,-99.99,734.000000,,2013-06-16 19:22:00,
2013-06-16 12:30:00,60.0,22.0,-100.00,South,176,6.0,11.0,23,-99.99,,,-99.99,778.000000,,2013-06-16 19:30:00,
2013-06-16 13:22:00,60.0,22.0,-100.00,South,176,6.0,11.0,23,-99.99,,,-99.99,778.000000,,2013-06-16 20:22:00,
2013-06-16 13:30:00,61.0,28.0,-100.00,SSW,197,4.0,9.0,28,-99.99,,,-99.99,776.000000,,2013-06-16 20:30:00,
2013-06-16 14:22:00,61.0,28.0,-100.00,SSW,197,4.0,9.0,28,-99.99,,,-99.99,776.000000,,2013-06-16 21:22:00,
2013-06-16 14:30:00,62.0,31.0,-100.00,West,266,3.0,7.0,31,-99.99,,,-99.99,729.000000,,2013-06-16 21:30:00,
2013-06-16 15:22:00,62.0,31.0,-100.00,West,266,3.0,7.0,31,-99.99,,,-99.99,729.000000,,2013-06-16 22:22:00,
2013-06-16 15:30:00,61.0,32.0,-100.00,WNW,301,3.0,7.0,34,-99.99,,,-99.99,65.000000,,2013-06-16 22:30:00,
2013-06-16 16:22:00,61.0,32.0,-100.00,WNW,301,3.0,7.0,34,-99.99,,,-99.99,65.000000,,2013-06-16 23:22:00,
2013-06-16 16:30:00,62.0,31.0,-100.00,West,281,2.0,6.0,32,-99.99,,,-99.99,127.000000,,2013-06-16 23:30:00,
2013-06-16 17:22:00,62.0,31.0,-100.00,West,281,2.0,6.0,32,-99.99,,,-99.99,127.000000,,2013-06-17 00:22:00,
2013-06-16 17:30:00,61.0,31.0,-100.00,West,273,3.0,8.0,33,-99.99,,,-99.99,318.000000,,2013-06-17 00:30:00,
2013-06-16 18:22:00,61.0,31.0,-100.00,West,273,3.0,8.0,33,-99.99,,,-99.99,318.000000,,2013-06-17 01:22:00,
2013-06-16 18:30:00,60.0,32.0,-100.00,West,277,2.0,8.0,35,-99.99,,,-99.99,217.000000,,2013-06-17 01:30:00,
2013-06-16 19:30:00,55.0,32.0,-100.00,WNW,300,2.0,5.0,41,-99.99,,,-99.99,14.000000,,2013-06-17 02:30:00,
2013-06-16 20:22:00,55.0,32.0,-100.00,WNW,300,2.0,5.0,41,-99.99,,,-99.99,14.000000,,2013-06-17 03:22:00,
2013-06-16 20:30:00,52.0,33.0,-100.00,NW,318,2.0,5.0,48,-99.99,,,-99.99,3.000000,,2013-06-17 03:30:00,
2013-06-16 21:22:00,52.0,33.0,-100.00,NW,318,2.0,5.0,48,-99.99,,,-99.99,3.000000,,2013-06-17 04:22:00,
2013-06-16 21:30:00,49.0,31.0,-100.00,NNW,331,2.0,3.0,50,-99.99,,,-99.99,0.000000,,2013-06-17 04:30:00,
2013-06-16 22:22:00,49.0,31.0,-100.00,NNW,331,2.0,3.0,50,-99.99,,,-99.99,0.000000,,2013-06-17 05:22:00,
2013-06-16 22:30:00,49.0,31.0,-100.00,NNW,336,2.0,3.0,50,-99.99,,,-99.99,0.000000,,2013-06-17 05:30:00,
2013-06-16 23:30:00,49.0,30.0,-100.00,East,92,3.0,5.0,48,-99.99,,,-99.99,0.000000,,2013-06-17 06:30:00,